Terminal Aerodrome Forecast
Issued by NWS Twin Cities, MN

Home | Current Version | Previous Version | Graphics & Text | Print | Product List | Glossary On
Versions: 1 2 3 4 5 6 7 8 9 10 11 12 13 14 15 16 17 18 19 20 21 22 23 24
000
FTUS43 KMPX 200303 AAA
TAFMSP
TAF AMD
KMSP 200303Z 2003/2106 07010KT P6SM OVC080
     FM201400 06012G20KT 6SM -RA BR SCT025 OVC040
     FM201600 06012G20KT 4SM RA BR SCT010 OVC020
     FM202000 07014G21KT 4SM -RA BR OVC008
     FM210300 03005KT 3SM -RA BR OVC005=

USA.gov is the U.S. government's official web portal to all federal, state and local government web resources and services.